Terminal Aerodrome Forecast
Issued by NWS Charleston, WV

Current Version | Previous Version | Graphics & Text | Print | Product List | Glossary On
Versions: 1 2 3 4 5 6 7 8 9 10 11 12 13 14 15 16 17 18 19 20 21 22 23 24 25 26 27 28
000
FTUS41 KRLX 250500
TAFHTS
TAF
KHTS 250536Z 2506/2606 00000KT 1/4SM FG VV001
      TEMPO 2506/2507 1SM BR
     FM251200 VRB03KT 1SM BR OVC002
     FM251300 VRB03KT 2SM BR BKN005
     FM251400 VRB03KT 4SM HZ SCT010
     FM251500 VRB03KT P6SM SKC
     FM251700 VRB03KT P6SM SCT045
     FM252200 19005KT P6SM SCT050=

USA.gov is the U.S. government's official web portal to all federal, state and local government web resources and services.